Decoded Metar for LDOS (OSIJEK in CROATIA) (IATA:OSI) | Meteo·Mobile Aviation Weather
aviador You're here:

LDOS Decoded Metar

OSIJEK in CROATIA
Report Time2019-03-23 01:00:00
UTC Time2019-03-23 01:31:09
Flight Rules vfr VFR
Wind330° at 05 kt
W.Decomp.*RWY 29: 4.0 kt HW 3.0 kt RCW
W.Rank330° ranks 16
Current wind is below 330° avg. (8.4)
Visibility9999 m
Phenomena:N/A
Clouds:N/A
Expected CloudBase > 2,800 ft AGL from Temp-Dew spread
CeilingNone
Temp03°C (ISA -11)
Dew Point-4°C (60% RH)
AAT-1.3°C
QNH1028 hPa
Density Alt-1,539 ft
Elevation292 ft
Report Wrong Elevation
Raw Report
LDOS 230100Z 33005KT CAVOK 03/M04 Q1028=

Extra information for LDOS:More info

Metar Taf Metar & Taf Last 4 Metars F.Rules Stats Wind Profile Meteogram Temp Stats Airport Information Weather charts Add Link Nearby VenuesMetar ALERT Operation Metar Decoded Social comments